Time;durP1;ratioP1;P1;durP2;ratioP2;P2;SDS_P1;SDS_P2;PMS_P1;PMS_P2;Temp;Humidity;BMP_temperature;BMP_pressure;BME280_temperature;BME280_humidity;BME280_pressure;Samples;Min_cycle;Max_cycle;Signal;HPM_P1;HPM_P2
2023/11/05 00:01:49;;;;;;;1.93;0.63;;;14.70;57.20;;;;;;5032056;28;20200;-56
2023/11/05 00:04:14;;;;;;;0.80;0.80;;;14.50;57.30;;;;;;5032666;28;20432;-53
2023/11/05 00:06:40;;;;;;;1.23;1.13;;;14.50;57.50;;;;;;5033846;28;20535;-56
2023/11/05 00:09:06;;;;;;;0.80;0.77;;;14.30;57.80;;;;;;5033729;28;20279;-51
2023/11/05 00:11:31;;;;;;;3.43;0.90;;;14.50;57.90;;;;;;5033686;28;20260;-52
2023/11/05 00:14:00;;;;;;;0.93;0.70;;;14.60;57.50;;;;;;5033870;28;20185;-54
2023/11/05 00:16:25;;;;;;;0.80;0.77;;;14.70;57.30;;;;;;5024915;28;20222;-54
2023/11/05 00:18:51;;;;;;;0.70;0.60;;;14.80;56.90;;;;;;5032016;28;20460;-52
2023/11/05 00:21:17;;;;;;;1.43;0.50;;;14.60;57.00;;;;;;5031456;28;20212;-48
2023/11/05 00:23:42;;;;;;;0.60;0.60;;;14.50;57.70;;;;;;5028312;28;20208;-52
2023/11/05 00:26:08;;;;;;;2.57;1.00;;;14.20;57.90;;;;;;5016450;28;20189;-52
2023/11/05 00:28:33;;;;;;;1.33;0.87;;;14.10;57.90;;;;;;5009573;28;20608;-50
2023/11/05 00:30:59;;;;;;;0.73;0.67;;;14.20;57.70;;;;;;5009840;28;20793;-56
2023/11/05 00:33:25;;;;;;;0.80;0.70;;;14.30;57.70;;;;;;5009432;28;20808;-52
2023/11/05 00:35:50;;;;;;;1.10;0.83;;;14.50;57.50;;;;;;5009919;28;20189;-53
2023/11/05 00:38:16;;;;;;;4.40;0.80;;;14.60;57.10;;;;;;5009592;28;20490;-54
2023/11/05 00:40:42;;;;;;;1.30;0.70;;;14.70;56.90;;;;;;5013249;28;20316;-52
2023/11/05 00:43:08;;;;;;;4.73;1.10;;;14.60;56.70;;;;;;5028453;28;20193;-54
2023/11/05 00:45:33;;;;;;;1.00;0.70;;;14.70;56.70;;;;;;5020709;28;20595;-53
2023/11/05 00:47:59;;;;;;;1.23;0.80;;;14.50;56.70;;;;;;5010959;28;20312;-51
2023/11/05 00:50:25;;;;;;;1.90;0.93;;;14.50;56.80;;;;;;5006260;28;20189;-51
2023/11/05 00:52:51;;;;;;;0.80;0.70;;;14.40;56.90;;;;;;5009703;28;20448;-54
2023/11/05 00:55:19;;;;;;;0.83;0.50;;;14.40;56.90;;;;;;5009775;28;20432;-54
2023/11/05 00:57:45;;;;;;;0.90;0.67;;;14.30;57.00;;;;;;5033989;28;20339;-52
2023/11/05 01:00:16;;;;;;;1.00;0.90;;;14.30;57.20;;;;;;5023069;28;21093;-52
2023/11/05 01:02:42;;;;;;;1.03;0.80;;;14.50;56.90;;;;;;5006651;28;20291;-53
2023/11/05 01:05:08;;;;;;;1.00;0.70;;;14.60;56.50;;;;;;5008093;28;20447;-53
2023/11/05 01:07:34;;;;;;;0.70;0.70;;;14.50;56.60;;;;;;5012793;28;20478;-53
2023/11/05 01:09:59;;;;;;;2.40;0.70;;;14.60;56.50;;;;;;5010698;28;20220;-55
2023/11/05 01:12:25;;;;;;;0.83;0.80;;;14.60;56.40;;;;;;5009378;28;20322;-53
2023/11/05 01:14:52;;;;;;;1.43;0.63;;;14.40;56.50;;;;;;5025371;28;20657;-54
2023/11/05 01:17:17;;;;;;;0.90;0.70;;;14.30;56.80;;;;;;5028568;28;20456;-51
2023/11/05 01:19:43;;;;;;;0.80;0.70;;;14.40;57.00;;;;;;5029756;28;20468;-51
2023/11/05 01:22:09;;;;;;;0.80;0.63;;;14.40;56.80;;;;;;5021548;28;20316;-56
2023/11/05 01:24:35;;;;;;;0.60;0.60;;;14.30;56.70;;;;;;5009608;28;20224;-54
2023/11/05 01:27:02;;;;;;;0.93;0.80;;;14.30;56.80;;;;;;5009831;28;20840;-55
2023/11/05 01:29:28;;;;;;;0.80;0.80;;;14.40;56.70;;;;;;5010317;28;20487;-51
2023/11/05 01:31:54;;;;;;;1.57;0.70;;;14.50;56.60;;;;;;5018980;28;20448;-52
2023/11/05 01:34:19;;;;;;;0.80;0.70;;;14.50;56.50;;;;;;5028646;28;20444;-52
2023/11/05 01:36:45;;;;;;;0.80;0.80;;;14.60;56.10;;;;;;5028642;28;20672;-50
2023/11/05 01:39:10;;;;;;;1.33;0.70;;;14.40;56.20;;;;;;5028449;28;20270;-52
2023/11/05 01:41:36;;;;;;;0.73;0.60;;;14.30;56.50;;;;;;5025827;28;20552;-52
2023/11/05 01:44:01;;;;;;;2.33;1.00;;;14.40;56.40;;;;;;5021958;28;20205;-53
2023/11/05 01:46:28;;;;;;;0.60;0.60;;;14.40;56.30;;;;;;5024450;28;20197;-54
2023/11/05 01:48:55;;;;;;;0.70;0.60;;;14.40;56.40;;;;;;5026126;28;20232;-56
2023/11/05 01:51:21;;;;;;;2.60;0.60;;;14.30;56.50;;;;;;5023719;28;20432;-53
2023/11/05 01:53:51;;;;;;;0.80;0.50;;;14.50;56.50;;;;;;5037254;28;20518;-54
2023/11/05 01:56:19;;;;;;;1.40;0.80;;;14.50;56.20;;;;;;5028954;28;20183;-54
2023/11/05 01:58:48;;;;;;;1.30;0.60;;;14.40;56.10;;;;;;5026693;28;21196;-54
2023/11/05 02:01:14;;;;;;;0.60;0.60;;;14.20;56.30;;;;;;5028842;28;20448;-55
2023/11/05 02:03:40;;;;;;;2.10;0.60;;;14.20;56.40;;;;;;5032089;28;20428;-54
2023/11/05 02:06:06;;;;;;;1.70;0.70;;;14.40;56.40;;;;;;5032981;28;20435;-52
2023/11/05 02:08:31;;;;;;;0.70;0.70;;;14.50;56.10;;;;;;5028465;28;20475;-53
2023/11/05 02:10:58;;;;;;;0.60;0.60;;;14.20;56.00;;;;;;5029779;28;20176;-52
2023/11/05 02:13:23;;;;;;;1.03;0.50;;;14.30;56.30;;;;;;5026805;28;20189;-56
2023/11/05 02:15:49;;;;;;;2.60;0.73;;;14.30;55.90;;;;;;5026281;28;20943;-53
2023/11/05 02:18:15;;;;;;;1.90;0.70;;;14.30;56.00;;;;;;5028102;28;20209;-55
2023/11/05 02:20:40;;;;;;;0.70;0.60;;;14.30;55.90;;;;;;5025480;28;20193;-52
2023/11/05 02:23:15;;;;;;;3.17;0.90;;;14.50;55.80;;;;;;5022775;28;20193;-52
2023/11/05 02:25:41;;;;;;;2.23;0.80;;;14.50;55.40;;;;;;5027013;28;20193;-55
2023/11/05 02:28:06;;;;;;;0.73;0.60;;;14.50;55.10;;;;;;5019269;28;20472;-51
2023/11/05 02:30:32;;;;;;;0.80;0.63;;;14.60;55.00;;;;;;5028826;28;20216;-53
2023/11/05 02:32:57;;;;;;;1.50;0.63;;;14.80;54.60;;;;;;5020601;28;20219;-53
2023/11/05 02:35:23;;;;;;;0.57;0.57;;;14.80;54.30;;;;;;5016317;28;21194;-56
2023/11/05 02:37:48;;;;;;;0.80;0.80;;;14.90;54.00;;;;;;5015420;28;20212;-53
2023/11/05 02:40:14;;;;;;;1.10;0.57;;;14.90;53.50;;;;;;5015369;28;20290;-54
2023/11/05 02:42:39;;;;;;;5.20;0.83;;;14.90;53.70;;;;;;5016144;28;20186;-52
2023/11/05 02:45:06;;;;;;;1.40;0.87;;;14.90;53.30;;;;;;5019790;28;20295;-54
2023/11/05 02:47:31;;;;;;;3.00;0.90;;;14.70;53.70;;;;;;5024301;28;20224;-50
2023/11/05 02:49:57;;;;;;;1.70;0.77;;;14.60;53.60;;;;;;5026348;28;22384;-52
2023/11/05 02:52:22;;;;;;;1.70;0.73;;;14.70;53.50;;;;;;5028334;28;20193;-53
2023/11/05 02:54:48;;;;;;;0.70;0.70;;;14.70;53.50;;;;;;5011606;28;20197;-53
2023/11/05 02:57:16;;;;;;;1.57;1.20;;;14.50;53.40;;;;;;5018295;28;20186;-54
2023/11/05 02:59:42;;;;;;;2.50;0.83;;;14.60;53.60;;;;;;5029997;28;20202;-53
2023/11/05 03:02:08;;;;;;;3.80;1.03;;;14.70;53.30;;;;;;5021788;28;20486;-52
2023/11/05 03:04:33;;;;;;;2.60;1.57;;;15.00;52.90;;;;;;5025860;28;20475;-53
2023/11/05 03:07:01;;;;;;;1.27;0.73;;;15.00;52.50;;;;;;5029547;28;20247;-56
2023/11/05 03:09:27;;;;;;;1.47;0.87;;;14.90;52.30;;;;;;5027905;28;20296;-52
2023/11/05 03:11:53;;;;;;;1.47;0.70;;;15.00;52.10;;;;;;5024848;28;20512;-56
2023/11/05 03:14:19;;;;;;;3.10;1.20;;;15.10;51.90;;;;;;5025625;28;20185;-52
2023/11/05 03:16:45;;;;;;;2.63;0.87;;;15.10;51.80;;;;;;5017842;28;20831;-52
2023/11/05 03:19:11;;;;;;;2.80;1.07;;;15.20;51.60;;;;;;5008839;28;20472;-51
2023/11/05 03:21:37;;;;;;;3.60;1.00;;;15.30;51.30;;;;;;5006535;28;20782;-52
2023/11/05 03:24:03;;;;;;;1.40;0.87;;;15.30;51.20;;;;;;5006341;28;20192;-51
2023/11/05 03:26:28;;;;;;;1.77;0.60;;;15.20;50.90;;;;;;5021291;28;20440;-53
2023/11/05 03:28:54;;;;;;;1.27;0.73;;;15.20;51.10;;;;;;5023352;28;20511;-53
2023/11/05 03:31:20;;;;;;;1.80;0.83;;;15.10;50.70;;;;;;5022529;28;20201;-55
2023/11/05 03:33:45;;;;;;;1.30;0.60;;;15.20;50.70;;;;;;5021866;28;20652;-54
2023/11/05 03:36:11;;;;;;;5.37;1.73;;;15.30;50.70;;;;;;5026596;28;20201;-51
2023/11/05 03:38:37;;;;;;;4.13;1.30;;;15.40;50.60;;;;;;5026405;28;20251;-51
2023/11/05 03:41:03;;;;;;;1.73;0.90;;;15.40;50.40;;;;;;5035251;28;20224;-52
2023/11/05 03:43:29;;;;;;;4.13;1.10;;;15.30;50.00;;;;;;5032640;28;20436;-53
2023/11/05 03:45:55;;;;;;;4.60;1.03;;;15.30;50.30;;;;;;5030733;28;20459;-54
2023/11/05 03:48:21;;;;;;;3.00;1.10;;;15.30;50.30;;;;;;5020314;28;20474;-51
2023/11/05 03:50:47;;;;;;;2.20;1.20;;;15.30;50.30;;;;;;5034464;28;20276;-51
2023/11/05 03:53:13;;;;;;;2.73;1.07;;;15.40;50.20;;;;;;5029272;28;20519;-53
2023/11/05 03:55:39;;;;;;;2.00;0.87;;;15.40;50.60;;;;;;5015085;28;20197;-53
2023/11/05 03:58:04;;;;;;;0.70;0.70;;;15.30;49.80;;;;;;5028541;28;20452;-55
2023/11/05 04:00:30;;;;;;;2.30;1.07;;;15.40;50.10;;;;;;5030307;28;20213;-53
2023/11/05 04:02:58;;;;;;;2.50;0.87;;;15.50;49.90;;;;;;5031651;28;20196;-52
2023/11/05 04:05:24;;;;;;;2.87;1.10;;;15.50;49.80;;;;;;5031074;28;20185;-55
2023/11/05 04:07:50;;;;;;;0.97;0.87;;;15.40;50.00;;;;;;5030898;28;20521;-51
2023/11/05 04:10:16;;;;;;;1.70;0.83;;;15.40;50.20;;;;;;5030618;28;20215;-51
2023/11/05 04:12:42;;;;;;;1.67;0.70;;;15.00;49.70;;;;;;5027878;28;20436;-52
2023/11/05 04:15:08;;;;;;;1.20;0.70;;;15.10;50.00;;;;;;5033074;28;20191;-50
2023/11/05 04:17:34;;;;;;;2.20;1.10;;;15.20;50.10;;;;;;5035771;28;20243;-52
2023/11/05 04:20:00;;;;;;;3.03;1.07;;;15.30;49.90;;;;;;5030494;28;20452;-51
2023/11/05 04:22:26;;;;;;;2.03;0.70;;;15.50;49.70;;;;;;5028669;28;20459;-52
2023/11/05 04:24:55;;;;;;;1.87;0.77;;;15.50;49.60;;;;;;5031025;28;20452;-50
2023/11/05 04:27:20;;;;;;;2.60;0.80;;;15.50;49.40;;;;;;5009502;28;20793;-54
2023/11/05 04:29:46;;;;;;;4.70;0.90;;;15.40;49.50;;;;;;5009307;28;20452;-52
2023/11/05 04:32:13;;;;;;;1.97;1.00;;;15.40;49.60;;;;;;5013769;28;20194;-54
2023/11/05 04:34:38;;;;;;;2.37;0.90;;;15.30;49.50;;;;;;5032144;28;20189;-56
2023/11/05 04:37:05;;;;;;;1.00;0.80;;;15.40;49.50;;;;;;5025551;28;20962;-52
2023/11/05 04:39:31;;;;;;;2.30;0.90;;;15.50;50.10;;;;;;5026752;28;20224;-53
2023/11/05 04:41:57;;;;;;;2.00;0.70;;;15.60;49.50;;;;;;5026643;28;20914;-52
2023/11/05 04:44:22;;;;;;;1.83;0.90;;;15.60;49.30;;;;;;5018176;28;20448;-52
2023/11/05 04:46:48;;;;;;;1.60;0.90;;;15.60;49.50;;;;;;5019838;28;20558;-52
2023/11/05 04:49:13;;;;;;;1.93;0.93;;;15.60;49.50;;;;;;5021763;28;20223;-54
2023/11/05 04:51:42;;;;;;;1.00;0.90;;;15.70;49.50;;;;;;5022018;28;20196;-56
2023/11/05 04:54:08;;;;;;;1.80;0.90;;;15.80;49.20;;;;;;5019650;28;20628;-54
2023/11/05 04:56:34;;;;;;;0.73;0.60;;;15.70;49.30;;;;;;5023954;28;20443;-57
2023/11/05 04:59:00;;;;;;;1.20;0.87;;;15.80;49.30;;;;;;5025674;28;20501;-52
2023/11/05 05:01:25;;;;;;;1.90;0.87;;;15.90;49.10;;;;;;5019782;28;20463;-56
2023/11/05 05:03:52;;;;;;;2.50;0.90;;;15.80;49.00;;;;;;5018924;28;20200;-54
2023/11/05 05:06:18;;;;;;;2.77;0.93;;;15.90;49.20;;;;;;5017310;28;22015;-54
2023/11/05 05:08:45;;;;;;;0.90;0.70;;;15.60;49.20;;;;;;5020267;28;20476;-54
2023/11/05 05:11:11;;;;;;;2.37;0.90;;;15.70;49.70;;;;;;5031565;28;20189;-56
2023/11/05 05:13:37;;;;;;;3.17;0.90;;;15.80;49.80;;;;;;5030280;28;20436;-56
2023/11/05 05:16:04;;;;;;;1.20;0.70;;;15.60;49.50;;;;;;5029255;28;20252;-54
2023/11/05 05:18:30;;;;;;;1.53;1.00;;;15.80;49.90;;;;;;5019711;28;20209;-56
2023/11/05 05:20:56;;;;;;;4.17;1.20;;;15.50;50.00;;;;;;5017999;28;20449;-51
2023/11/05 05:23:21;;;;;;;2.60;1.53;;;15.70;50.10;;;;;;5016741;28;20199;-53
2023/11/05 05:25:47;;;;;;;1.90;0.90;;;15.80;50.00;;;;;;5015607;28;20190;-54
2023/11/05 05:28:12;;;;;;;2.17;0.73;;;15.90;50.20;;;;;;5024721;28;20255;-54
2023/11/05 05:30:39;;;;;;;4.53;1.00;;;15.80;50.10;;;;;;5023099;28;20552;-54
2023/11/05 05:33:04;;;;;;;1.30;0.90;;;15.90;50.30;;;;;;5027060;28;20184;-53
2023/11/05 05:35:30;;;;;;;2.17;1.00;;;15.90;50.10;;;;;;5027720;28;20439;-52
2023/11/05 05:37:56;;;;;;;1.70;0.90;;;16.00;50.00;;;;;;5030589;28;20672;-54
2023/11/05 05:40:21;;;;;;;1.10;0.90;;;16.10;49.90;;;;;;5029735;28;20209;-56
2023/11/05 05:42:47;;;;;;;1.17;1.03;;;15.80;50.20;;;;;;5026733;28;20273;-54
2023/11/05 05:45:13;;;;;;;3.77;1.10;;;15.50;50.80;;;;;;5028441;28;20209;-53
2023/11/05 05:47:40;;;;;;;1.40;0.83;;;15.50;51.30;;;;;;5029508;28;20280;-53
2023/11/05 05:50:06;;;;;;;1.50;1.40;;;15.60;51.40;;;;;;5026969;28;20240;-52
2023/11/05 05:52:32;;;;;;;1.37;1.00;;;15.60;51.40;;;;;;5011250;28;20601;-55
2023/11/05 05:54:57;;;;;;;1.77;0.90;;;15.70;51.30;;;;;;5025689;28;20892;-55
2023/11/05 05:57:24;;;;;;;1.37;0.80;;;15.70;51.30;;;;;;5031100;28;20232;-55
2023/11/05 05:59:52;;;;;;;0.80;0.60;;;15.70;51.30;;;;;;5027545;28;20217;-52
2023/11/05 06:02:17;;;;;;;4.67;2.50;;;15.70;51.40;;;;;;5029086;28;20519;-54
2023/11/05 06:04:43;;;;;;;0.80;0.73;;;15.60;51.40;;;;;;5029866;28;20605;-55
2023/11/05 06:07:08;;;;;;;1.53;0.80;;;15.60;51.60;;;;;;5034977;28;20280;-55
2023/11/05 06:09:34;;;;;;;1.60;0.70;;;15.60;51.80;;;;;;5031208;28;20224;-51
2023/11/05 06:11:59;;;;;;;0.90;0.80;;;15.60;51.90;;;;;;5034379;28;20193;-52
2023/11/05 06:14:26;;;;;;;2.07;0.77;;;15.60;51.90;;;;;;5032167;28;20185;-55
2023/11/05 06:16:52;;;;;;;1.53;0.97;;;15.60;51.90;;;;;;5037729;28;20539;-54
2023/11/05 06:19:17;;;;;;;2.60;0.90;;;15.80;51.80;;;;;;5038321;28;20465;-53
2023/11/05 06:21:45;;;;;;;0.97;0.70;;;15.80;51.60;;;;;;5026842;28;20288;-54
2023/11/05 06:24:11;;;;;;;3.33;0.80;;;15.40;52.00;;;;;;5031614;28;20194;-51
2023/11/05 06:26:37;;;;;;;2.10;1.00;;;15.30;52.60;;;;;;5025476;28;20443;-54
2023/11/05 06:29:04;;;;;;;1.60;0.77;;;15.40;52.90;;;;;;5018603;28;20540;-55
2023/11/05 06:31:30;;;;;;;3.90;0.77;;;15.40;52.70;;;;;;5012124;28;20475;-53
2023/11/05 06:33:55;;;;;;;0.60;0.57;;;15.30;53.10;;;;;;5012048;28;20555;-53
2023/11/05 06:36:21;;;;;;;1.00;0.83;;;15.50;53.00;;;;;;5009030;28;22420;-52
2023/11/05 06:38:46;;;;;;;2.37;1.10;;;15.50;52.70;;;;;;5009032;28;20224;-52
2023/11/05 06:41:12;;;;;;;1.70;0.90;;;15.80;53.00;;;;;;5013683;28;20189;-51
2023/11/05 06:43:38;;;;;;;1.90;0.70;;;15.90;52.50;;;;;;5011568;28;20268;-51
2023/11/05 06:46:03;;;;;;;1.23;0.87;;;16.00;52.00;;;;;;5013189;28;20715;-52
2023/11/05 06:48:31;;;;;;;1.10;1.00;;;16.10;52.30;;;;;;5012135;28;20217;-54
2023/11/05 06:50:56;;;;;;;1.20;1.00;;;16.10;52.20;;;;;;5009124;28;20197;-53
2023/11/05 06:53:22;;;;;;;0.97;0.77;;;16.30;51.70;;;;;;5008296;28;20554;-52
2023/11/05 06:55:48;;;;;;;0.93;0.87;;;16.40;51.00;;;;;;5020683;28;20196;-53
2023/11/05 06:58:17;;;;;;;6.10;0.90;;;16.50;51.00;;;;;;5034808;28;20299;-57
2023/11/05 07:00:44;;;;;;;3.13;0.80;;;16.70;50.80;;;;;;5031025;28;20451;-56
2023/11/05 07:03:10;;;;;;;1.10;0.60;;;16.70;50.80;;;;;;5030676;28;20443;-52
2023/11/05 07:05:35;;;;;;;1.20;0.70;;;16.50;51.00;;;;;;5035753;28;20435;-53
2023/11/05 07:08:03;;;;;;;1.50;0.90;;;16.20;51.40;;;;;;5031636;28;20471;-52
2023/11/05 07:10:28;;;;;;;0.87;0.80;;;16.00;52.10;;;;;;5030181;28;20652;-53
2023/11/05 07:12:54;;;;;;;2.17;0.97;;;15.80;52.50;;;;;;5032342;28;20455;-53
2023/11/05 07:15:19;;;;;;;1.30;0.77;;;15.80;53.00;;;;;;5027209;28;20181;-55
2023/11/05 07:17:45;;;;;;;0.80;0.80;;;15.80;53.00;;;;;;5032471;28;20235;-53
2023/11/05 07:20:14;;;;;;;1.00;0.70;;;15.80;53.00;;;;;;5034381;28;20647;-51
2023/11/05 07:22:42;;;;;;;0.60;0.60;;;15.80;53.10;;;;;;5034243;28;20447;-56
2023/11/05 07:25:08;;;;;;;1.00;0.80;;;15.40;53.30;;;;;;5032754;28;20503;-51
2023/11/05 07:27:34;;;;;;;0.50;0.50;;;15.40;54.00;;;;;;5029356;28;20464;-52
2023/11/05 07:30:00;;;;;;;0.60;0.53;;;15.40;54.40;;;;;;5027508;28;20541;-53
2023/11/05 07:32:26;;;;;;;3.63;0.70;;;15.50;54.10;;;;;;5033205;28;20540;-55
2023/11/05 07:34:51;;;;;;;1.80;0.60;;;15.60;54.10;;;;;;5034192;28;20213;-51
2023/11/05 07:37:17;;;;;;;0.60;0.53;;;15.60;54.20;;;;;;5030083;28;20925;-55
2023/11/05 07:39:42;;;;;;;0.50;0.50;;;15.60;54.30;;;;;;5034839;28;20212;-51
2023/11/05 07:42:08;;;;;;;2.57;0.80;;;15.80;54.10;;;;;;5028892;28;20675;-55
2023/11/05 07:44:34;;;;;;;0.87;0.60;;;16.00;53.70;;;;;;5036496;28;20201;-54
2023/11/05 07:46:59;;;;;;;2.70;0.60;;;15.90;54.00;;;;;;5033477;28;20660;-51
2023/11/05 07:49:25;;;;;;;0.60;0.50;;;15.90;53.80;;;;;;5035783;28;20225;-52
2023/11/05 07:51:51;;;;;;;0.60;0.60;;;16.00;53.80;;;;;;5036098;28;20185;-53
2023/11/05 07:54:17;;;;;;;1.87;0.67;;;16.20;53.30;;;;;;5026712;28;20186;-52
2023/11/05 07:56:44;;;;;;;1.20;0.63;;;16.30;53.30;;;;;;5029085;28;20670;-53
2023/11/05 07:59:09;;;;;;;0.60;0.60;;;16.10;53.40;;;;;;5034237;28;20544;-52
2023/11/05 08:01:35;;;;;;;0.80;0.60;;;16.10;53.80;;;;;;5016748;28;20477;-51
2023/11/05 08:04:00;;;;;;;0.60;0.60;;;16.00;53.70;;;;;;5042917;28;20224;-51
2023/11/05 08:06:26;;;;;;;0.97;0.80;;;16.20;53.70;;;;;;5035718;28;20189;-53
2023/11/05 08:08:52;;;;;;;0.70;0.70;;;16.60;53.40;;;;;;5036281;28;20213;-54
2023/11/05 08:11:17;;;;;;;0.50;0.50;;;16.70;52.90;;;;;;5034379;28;20471;-52
2023/11/05 08:13:43;;;;;;;0.60;0.60;;;16.80;52.60;;;;;;5038993;28;20185;-52
2023/11/05 08:16:10;;;;;;;0.60;0.60;;;16.70;52.50;;;;;;5037082;28;20280;-51
2023/11/05 08:18:35;;;;;;;0.97;0.50;;;16.80;52.80;;;;;;5037281;28;20232;-50
2023/11/05 08:21:02;;;;;;;0.80;0.50;;;16.70;52.40;;;;;;5042088;28;20467;-53
2023/11/05 08:23:28;;;;;;;1.10;0.77;;;16.80;52.40;;;;;;5032150;28;20181;-50
2023/11/05 08:25:54;;;;;;;1.37;0.70;;;16.80;52.60;;;;;;5032629;28;20527;-51
2023/11/05 08:28:20;;;;;;;0.60;0.60;;;16.80;52.50;;;;;;5031831;28;20217;-53
2023/11/05 08:30:45;;;;;;;0.60;0.60;;;16.80;52.60;;;;;;5032286;28;20454;-52
2023/11/05 08:33:11;;;;;;;0.90;0.67;;;16.60;52.30;;;;;;5041134;28;20184;-50
2023/11/05 08:35:37;;;;;;;0.50;0.40;;;16.20;52.80;;;;;;5039540;28;20181;-52
2023/11/05 08:38:03;;;;;;;0.50;0.40;;;16.20;53.10;;;;;;5035548;28;20465;-52
2023/11/05 08:40:28;;;;;;;1.23;0.50;;;16.10;53.60;;;;;;5038637;28;20886;-53
2023/11/05 08:42:54;;;;;;;0.67;0.67;;;15.80;53.70;;;;;;5038778;28;20185;-50
2023/11/05 08:45:20;;;;;;;0.80;0.60;;;15.90;53.90;;;;;;5040430;28;20201;-52
2023/11/05 08:47:45;;;;;;;1.33;0.60;;;16.00;54.10;;;;;;5041002;28;20209;-50
2023/11/05 08:50:11;;;;;;;1.37;0.70;;;16.10;54.10;;;;;;5035347;28;20205;-52
2023/11/05 08:52:37;;;;;;;0.57;0.50;;;16.00;54.00;;;;;;5019330;28;20193;-54
2023/11/05 08:55:03;;;;;;;1.63;0.50;;;16.20;54.00;;;;;;5025525;28;20201;-50
2023/11/05 08:57:29;;;;;;;0.70;0.70;;;16.50;54.00;;;;;;5029506;28;20190;-50
2023/11/05 08:59:55;;;;;;;1.17;0.70;;;16.60;53.20;;;;;;5034518;28;20558;-52
2023/11/05 09:02:23;;;;;;;0.73;0.60;;;16.70;52.90;;;;;;5025288;28;20675;-52
2023/11/05 09:04:49;;;;;;;0.90;0.60;;;16.70;52.90;;;;;;5029434;28;20456;-52
2023/11/05 09:07:14;;;;;;;0.70;0.60;;;16.90;52.60;;;;;;5021057;28;20467;-54
2023/11/05 09:09:40;;;;;;;1.13;0.60;;;16.90;52.40;;;;;;5027560;28;20503;-51
2023/11/05 09:12:10;;;;;;;1.47;0.60;;;17.10;52.00;;;;;;5028036;28;20224;-51
2023/11/05 09:14:36;;;;;;;1.67;0.70;;;17.20;52.30;;;;;;5027218;28;20276;-51
2023/11/05 09:17:03;;;;;;;0.90;0.67;;;17.10;51.00;;;;;;5025531;28;20447;-52
2023/11/05 09:19:28;;;;;;;0.70;0.70;;;17.10;51.30;;;;;;5033990;28;20996;-52
2023/11/05 09:21:54;;;;;;;0.50;0.50;;;17.20;51.80;;;;;;5035780;28;20428;-53
2023/11/05 09:24:20;;;;;;;0.70;0.60;;;17.30;51.30;;;;;;5024641;28;22300;-53
2023/11/05 09:26:46;;;;;;;1.17;0.60;;;17.30;50.90;;;;;;5033540;28;20440;-53
2023/11/05 09:29:11;;;;;;;0.67;0.50;;;17.30;51.20;;;;;;5033231;28;20228;-53
2023/11/05 09:31:37;;;;;;;0.50;0.50;;;17.10;51.10;;;;;;5033504;28;20197;-52
2023/11/05 09:34:04;;;;;;;0.50;0.50;;;17.00;51.20;;;;;;5037369;28;20226;-52
2023/11/05 09:36:30;;;;;;;1.00;0.60;;;17.20;51.30;;;;;;5030963;28;20273;-52
2023/11/05 09:38:56;;;;;;;1.00;0.83;;;16.90;50.90;;;;;;5028748;28;20555;-52
2023/11/05 09:41:26;;;;;;;1.13;0.70;;;17.00;51.20;;;;;;5029325;28;20193;-52
2023/11/05 09:43:52;;;;;;;0.80;0.50;;;17.00;51.30;;;;;;5031614;28;20820;-54
2023/11/05 09:46:18;;;;;;;1.40;0.73;;;17.20;51.60;;;;;;5033695;28;20434;-52
2023/11/05 09:48:43;;;;;;;0.60;0.50;;;17.10;51.10;;;;;;5037226;28;20216;-56
2023/11/05 09:51:11;;;;;;;2.50;1.10;;;17.00;51.80;;;;;;5036829;28;20283;-53
2023/11/05 09:53:37;;;;;;;0.93;0.50;;;17.00;51.50;;;;;;5033663;28;20636;-52
2023/11/05 09:56:04;;;;;;;3.50;0.63;;;17.20;51.60;;;;;;5040612;28;20454;-52
2023/11/05 09:58:29;;;;;;;1.80;0.67;;;17.30;51.60;;;;;;5032923;28;20467;-51
2023/11/05 10:00:55;;;;;;;3.10;0.57;;;17.30;51.20;;;;;;5031386;28;20444;-52
2023/11/05 10:03:21;;;;;;;1.63;0.70;;;17.30;50.50;;;;;;5032619;28;20268;-52
2023/11/05 10:05:47;;;;;;;1.07;0.97;;;17.20;50.90;;;;;;5036498;28;20217;-53
2023/11/05 10:08:13;;;;;;;0.80;0.60;;;17.20;51.10;;;;;;5032546;28;20853;-53
2023/11/05 10:10:44;;;;;;;1.07;0.70;;;17.10;51.20;;;;;;5035669;28;20516;-51
2023/11/05 10:13:10;;;;;;;0.60;0.50;;;17.20;51.80;;;;;;5037749;28;20434;-53
2023/11/05 10:15:37;;;;;;;0.70;0.70;;;16.80;51.70;;;;;;5030881;28;20451;-52
2023/11/05 10:18:04;;;;;;;0.60;0.50;;;16.50;52.40;;;;;;5038859;28;20454;-52
2023/11/05 10:20:30;;;;;;;1.67;0.80;;;16.40;53.60;;;;;;5037186;28;20799;-51
2023/11/05 10:23:06;;;;;;;4.10;1.03;;;16.50;53.70;;;;;;5039817;28;20439;-51
2023/11/05 10:25:32;;;;;;;2.03;0.70;;;16.60;54.00;;;;;;5033933;28;20587;-54
2023/11/05 10:27:59;;;;;;;0.60;0.60;;;16.80;53.90;;;;;;5040996;28;20527;-54
2023/11/05 10:30:26;;;;;;;2.83;0.80;;;16.80;53.90;;;;;;5034694;28;20852;-52
2023/11/05 10:32:52;;;;;;;1.03;0.70;;;16.90;54.60;;;;;;5039153;28;20468;-51
2023/11/05 10:35:20;;;;;;;0.63;0.50;;;17.00;54.00;;;;;;5034734;28;20462;-50
2023/11/05 10:37:51;;;;;;;0.60;0.60;;;16.50;53.60;;;;;;5032923;28;20455;-52
2023/11/05 10:40:17;;;;;;;0.60;0.60;;;16.20;55.00;;;;;;5032781;28;20460;-53
2023/11/05 10:42:49;;;;;;;0.50;0.50;;;16.10;55.70;;;;;;5033013;28;20586;-54
2023/11/05 10:45:17;;;;;;;0.70;0.70;;;16.10;56.60;;;;;;5028939;28;20467;-53
2023/11/05 10:47:45;;;;;;;1.30;0.57;;;15.90;58.10;;;;;;5027273;28;20463;-53
2023/11/05 10:50:19;;;;;;;2.40;0.73;;;15.80;59.30;;;;;;5028902;28;20506;-53
2023/11/05 10:52:49;;;;;;;1.27;0.70;;;15.40;60.30;;;;;;5032420;28;20513;-55
2023/11/05 10:55:15;;;;;;;1.23;0.90;;;15.60;61.90;;;;;;5031894;28;20436;-53
2023/11/05 10:57:46;;;;;;;0.70;0.50;;;15.70;62.60;;;;;;5032639;28;20963;-52
2023/11/05 11:00:24;;;;;;;1.10;0.80;;;15.70;62.60;;;;;;5033926;28;20456;-51
2023/11/05 11:02:49;;;;;;;1.90;0.60;;;15.40;63.40;;;;;;5029465;28;20459;-55
2023/11/05 11:05:19;;;;;;;2.67;1.10;;;15.40;63.20;;;;;;5023769;28;20463;-54
2023/11/05 11:07:44;;;;;;;1.50;0.70;;;15.60;65.00;;;;;;5031619;28;20287;-54
2023/11/05 11:10:10;;;;;;;1.00;0.60;;;15.70;63.80;;;;;;5040150;28;20537;-54
2023/11/05 11:12:38;;;;;;;1.30;0.70;;;15.70;63.80;;;;;;5031574;28;20188;-51
2023/11/05 11:15:08;;;;;;;2.50;1.20;;;15.70;64.10;;;;;;5041162;28;20435;-53
2023/11/05 11:17:43;;;;;;;3.10;1.10;;;15.60;64.70;;;;;;5033201;28;20450;-56
2023/11/05 11:20:11;;;;;;;0.80;0.70;;;15.80;64.60;;;;;;5029766;28;20466;-54
2023/11/05 11:22:44;;;;;;;1.57;0.60;;;16.00;64.50;;;;;;5036433;28;20531;-50
2023/11/05 11:25:12;;;;;;;2.83;0.80;;;16.00;64.80;;;;;;5033247;28;20805;-53
2023/11/05 11:27:41;;;;;;;1.00;0.80;;;16.00;65.30;;;;;;5037181;28;20438;-57
2023/11/05 11:30:09;;;;;;;1.20;0.80;;;15.80;64.70;;;;;;5032251;28;20466;-54
2023/11/05 11:32:38;;;;;;;1.37;0.77;;;15.50;65.60;;;;;;5032322;28;20455;-55
2023/11/05 11:35:07;;;;;;;1.40;0.60;;;15.50;66.60;;;;;;5025789;28;20460;-51
2023/11/05 11:37:34;;;;;;;0.80;0.60;;;15.50;65.80;;;;;;5033172;28;20439;-56
2023/11/05 11:40:01;;;;;;;2.87;1.30;;;15.00;66.50;;;;;;5028663;28;20525;-52
2023/11/05 11:42:26;;;;;;;2.50;0.70;;;15.20;67.60;;;;;;5026789;28;20887;-54
2023/11/05 11:44:52;;;;;;;1.00;0.73;;;15.30;68.30;;;;;;5033287;28;20447;-58
2023/11/05 11:47:23;;;;;;;0.63;0.50;;;15.40;68.20;;;;;;5031601;28;20189;-58
2023/11/05 11:49:49;;;;;;;0.70;0.70;;;15.00;68.30;;;;;;5027684;28;20990;-57
2023/11/05 11:52:15;;;;;;;1.20;0.60;;;15.10;69.60;;;;;;5027892;28;20455;-56
2023/11/05 11:54:44;;;;;;;0.80;0.80;;;15.20;69.80;;;;;;5031446;28;20197;-56
2023/11/05 11:57:10;;;;;;;2.83;1.40;;;15.30;68.10;;;;;;5031029;28;20431;-58
2023/11/05 11:59:35;;;;;;;1.13;1.00;;;15.40;68.80;;;;;;5027302;28;20466;-56
2023/11/05 12:02:02;;;;;;;2.27;1.20;;;15.60;68.60;;;;;;5018340;28;20191;-53
2023/11/05 12:04:29;;;;;;;1.20;1.10;;;15.90;67.80;;;;;;5024192;28;20249;-56
2023/11/05 12:06:56;;;;;;;1.23;1.03;;;16.00;68.20;;;;;;5028284;28;20452;-55
2023/11/05 12:09:23;;;;;;;2.93;2.73;;;16.00;68.10;;;;;;5028988;28;20483;-59
2023/11/05 12:11:50;;;;;;;1.50;1.10;;;16.00;66.80;;;;;;5031315;28;21412;-58
2023/11/05 12:14:21;;;;;;;1.07;0.77;;;16.10;66.80;;;;;;5029200;28;20541;-56
2023/11/05 12:16:46;;;;;;;2.77;1.20;;;16.20;67.00;;;;;;5028729;28;20428;-55
2023/11/05 12:19:12;;;;;;;1.07;1.07;;;16.10;66.60;;;;;;5033112;28;20528;-58
2023/11/05 12:21:38;;;;;;;1.30;1.20;;;16.00;67.00;;;;;;5029156;28;20326;-56
2023/11/05 12:24:04;;;;;;;3.13;1.30;;;15.80;66.60;;;;;;5031606;28;20197;-53
2023/11/05 12:26:30;;;;;;;1.00;0.90;;;16.00;67.00;;;;;;5029372;28;20200;-56
2023/11/05 12:28:56;;;;;;;1.33;1.13;;;16.00;67.10;;;;;;5029841;28;20483;-57
2023/11/05 12:31:25;;;;;;;1.07;0.70;;;16.00;66.80;;;;;;5028896;28;20191;-56
2023/11/05 12:33:55;;;;;;;0.80;0.80;;;15.80;65.10;;;;;;5029179;28;20280;-56
2023/11/05 12:36:20;;;;;;;1.20;1.10;;;15.90;65.90;;;;;;5029689;28;20462;-55
2023/11/05 12:38:47;;;;;;;1.10;0.70;;;16.10;65.70;;;;;;5030737;28;20464;-55
2023/11/05 12:41:13;;;;;;;1.50;1.40;;;16.10;65.20;;;;;;5028530;28;20197;-57
2023/11/05 12:43:39;;;;;;;0.90;0.90;;;16.10;64.80;;;;;;5028625;28;20498;-55